Terminal Aerodrome Forecast
Issued by NWS Topeka, KS

Home | Current Version | Previous Version | Text Only | Print | Product List | Glossary Off
Versions: 1 2 3 4 5 6 7 8 9 10 11 12 13 14 15 16 17 18 19 20 21 22 23 24

580
FTUS43 KTOP 231735
TAFTOP
TAF
KTOP 231735Z 2318/2418 17019G33KT P6SM SCT250
     FM240200 17021G32KT P6SM SCT250 WS020/18055KT
     FM241500 18014G27KT P6SM VCSH BKN035=

USA.gov is the U.S. government's official web portal to all federal, state and local government web resources and services.